sensor_id;sensor_type;location;lat;lon;timestamp;pressure;altitude;pressure_sealevel;temperature;humidity
64211;BME280;73293;48.538;14.354;2024-03-06T00:00:18;93625.48;;;3.68;97.48
64211;BME280;73293;48.538;14.354;2024-03-06T00:01:19;93628.53;;;3.62;97.41
64211;BME280;73293;48.538;14.354;2024-03-06T00:01:54;93632.38;;;3.60;97.42
64211;BME280;73293;48.538;14.354;2024-03-06T00:02:50;93628.67;;;3.56;97.39
64211;BME280;73293;48.538;14.354;2024-03-06T00:03:24;93635.43;;;3.51;97.44
64211;BME280;73293;48.538;14.354;2024-03-06T00:03:57;93633.13;;;3.47;97.58
64211;BME280;73293;48.538;14.354;2024-03-06T00:04:31;93630.19;;;3.45;97.70
64211;BME280;73293;48.538;14.354;2024-03-06T00:05:05;93632.90;;;3.44;97.82
64211;BME280;73293;48.538;14.354;2024-03-06T00:05:41;93636.27;;;3.42;97.92
64211;BME280;73293;48.538;14.354;2024-03-06T00:06:31;93632.27;;;3.42;98.06
64211;BME280;73293;48.538;14.354;2024-03-06T00:07:04;93634.10;;;3.36;98.24
64211;BME280;73293;48.538;14.354;2024-03-06T00:07:39;93632.54;;;3.36;98.29
64211;BME280;73293;48.538;14.354;2024-03-06T00:08:13;93633.47;;;3.36;98.30
64211;BME280;73293;48.538;14.354;2024-03-06T00:08:46;93634.28;;;3.35;98.36
64211;BME280;73293;48.538;14.354;2024-03-06T00:09:20;93634.23;;;3.35;98.39
64211;BME280;73293;48.538;14.354;2024-03-06T00:10:04;93636.36;;;3.39;98.54
64211;BME280;73293;48.538;14.354;2024-03-06T00:10:40;93638.64;;;3.35;98.60
64211;BME280;73293;48.538;14.354;2024-03-06T00:11:14;93640.71;;;3.35;98.52
64211;BME280;73293;48.538;14.354;2024-03-06T00:11:49;93634.64;;;3.35;98.57
64211;BME280;73293;48.538;14.354;2024-03-06T00:12:24;93637.23;;;3.35;98.63
64211;BME280;73293;48.538;14.354;2024-03-06T00:12:57;93635.95;;;3.35;98.60
64211;BME280;73293;48.538;14.354;2024-03-06T00:13:44;93633.77;;;3.39;98.67
64211;BME280;73293;48.538;14.354;2024-03-06T00:14:21;93635.40;;;3.34;98.76
64211;BME280;73293;48.538;14.354;2024-03-06T00:14:55;93636.88;;;3.35;98.51
64211;BME280;73293;48.538;14.354;2024-03-06T00:15:29;93633.73;;;3.31;98.26
64211;BME280;73293;48.538;14.354;2024-03-06T00:16:04;93633.31;;;3.32;98.30
64211;BME280;73293;48.538;14.354;2024-03-06T00:16:38;93638.31;;;3.30;98.25
64211;BME280;73293;48.538;14.354;2024-03-06T00:17:25;93636.94;;;3.31;98.31
64211;BME280;73293;48.538;14.354;2024-03-06T00:18:01;93635.42;;;3.28;98.27
64211;BME280;73293;48.538;14.354;2024-03-06T00:18:35;93633.75;;;3.26;98.20
64211;BME280;73293;48.538;14.354;2024-03-06T00:19:09;93632.15;;;3.21;98.04
64211;BME280;73293;48.538;14.354;2024-03-06T00:19:43;93632.55;;;3.18;98.03
64211;BME280;73293;48.538;14.354;2024-03-06T00:20:16;93637.80;;;3.15;97.85
64211;BME280;73293;48.538;14.354;2024-03-06T00:21:05;93633.58;;;3.12;97.78
64211;BME280;73293;48.538;14.354;2024-03-06T00:21:38;93640.77;;;3.08;97.84
64211;BME280;73293;48.538;14.354;2024-03-06T00:22:13;93638.04;;;3.06;98.02
64211;BME280;73293;48.538;14.354;2024-03-06T00:22:46;93642.67;;;3.05;97.83
64211;BME280;73293;48.538;14.354;2024-03-06T00:23:22;93637.58;;;2.98;97.75
64211;BME280;73293;48.538;14.354;2024-03-06T00:23:58;93639.35;;;2.96;97.62
64211;BME280;73293;48.538;14.354;2024-03-06T00:24:45;93642.79;;;2.95;97.75
64211;BME280;73293;48.538;14.354;2024-03-06T00:25:20;93646.84;;;2.89;97.88
64211;BME280;73293;48.538;14.354;2024-03-06T00:25:54;93644.91;;;2.90;97.93
64211;BME280;73293;48.538;14.354;2024-03-06T00:26:27;93649.30;;;2.89;98.02
64211;BME280;73293;48.538;14.354;2024-03-06T00:27:01;93646.77;;;2.87;97.85
64211;BME280;73293;48.538;14.354;2024-03-06T00:27:35;93644.87;;;2.82;97.77
64211;BME280;73293;48.538;14.354;2024-03-06T00:28:23;93646.81;;;2.80;97.85
64211;BME280;73293;48.538;14.354;2024-03-06T00:28:57;93646.64;;;2.74;97.82
64211;BME280;73293;48.538;14.354;2024-03-06T00:29:31;93645.09;;;2.70;97.74
64211;BME280;73293;48.538;14.354;2024-03-06T00:30:05;93644.02;;;2.65;97.59
64211;BME280;73293;48.538;14.354;2024-03-06T00:30:41;93646.87;;;2.64;97.67
64211;BME280;73293;48.538;14.354;2024-03-06T00:31:15;93646.88;;;2.59;97.74
64211;BME280;73293;48.538;14.354;2024-03-06T00:32:02;93647.99;;;2.62;98.03
64211;BME280;73293;48.538;14.354;2024-03-06T00:32:37;93646.05;;;2.53;97.99
64211;BME280;73293;48.538;14.354;2024-03-06T00:33:11;93644.30;;;2.52;98.00
64211;BME280;73293;48.538;14.354;2024-03-06T00:33:44;93645.36;;;2.54;97.98
64211;BME280;73293;48.538;14.354;2024-03-06T00:34:18;93644.16;;;2.55;97.77
64211;BME280;73293;48.538;14.354;2024-03-06T00:34:51;93646.89;;;2.53;97.49
64211;BME280;73293;48.538;14.354;2024-03-06T00:35:40;93645.30;;;2.46;97.63
64211;BME280;73293;48.538;14.354;2024-03-06T00:36:16;93644.83;;;2.36;97.81
64211;BME280;73293;48.538;14.354;2024-03-06T00:36:50;93645.20;;;2.34;97.97
64211;BME280;73293;48.538;14.354;2024-03-06T00:37:24;93648.22;;;2.30;98.10
64211;BME280;73293;48.538;14.354;2024-03-06T00:37:57;93641.59;;;2.30;98.26
64211;BME280;73293;48.538;14.354;2024-03-06T00:38:35;93643.60;;;2.30;98.17
64211;BME280;73293;48.538;14.354;2024-03-06T00:39:19;93647.59;;;2.29;98.21
64211;BME280;73293;48.538;14.354;2024-03-06T00:39:55;93643.80;;;2.21;98.21
64211;BME280;73293;48.538;14.354;2024-03-06T00:40:29;93646.20;;;2.20;98.32
64211;BME280;73293;48.538;14.354;2024-03-06T00:41:04;93643.70;;;2.15;98.33
64211;BME280;73293;48.538;14.354;2024-03-06T00:41:38;93641.81;;;2.12;98.32
64211;BME280;73293;48.538;14.354;2024-03-06T00:42:12;93649.99;;;2.11;98.45
64211;BME280;73293;48.538;14.354;2024-03-06T00:42:59;93638.91;;;2.12;98.73
64211;BME280;73293;48.538;14.354;2024-03-06T00:43:33;93645.08;;;2.11;98.72
64211;BME280;73293;48.538;14.354;2024-03-06T00:44:07;93644.48;;;2.14;98.96
64211;BME280;73293;48.538;14.354;2024-03-06T00:44:40;93645.41;;;2.12;98.86
64211;BME280;73293;48.538;14.354;2024-03-06T00:45:14;93643.98;;;2.10;98.76
64211;BME280;73293;48.538;14.354;2024-03-06T00:45:49;93643.25;;;2.06;98.66
64211;BME280;73293;48.538;14.354;2024-03-06T00:46:40;93644.69;;;2.04;98.61
64211;BME280;73293;48.538;14.354;2024-03-06T00:47:14;93647.79;;;1.97;98.20
64211;BME280;73293;48.538;14.354;2024-03-06T00:47:48;93646.31;;;1.99;97.90
64211;BME280;73293;48.538;14.354;2024-03-06T00:48:22;93649.52;;;1.95;97.40
64211;BME280;73293;48.538;14.354;2024-03-06T00:48:55;93651.10;;;1.97;97.24
64211;BME280;73293;48.538;14.354;2024-03-06T00:49:29;93646.16;;;1.92;97.16
64211;BME280;73293;48.538;14.354;2024-03-06T00:50:18;93646.70;;;1.86;97.48
64211;BME280;73293;48.538;14.354;2024-03-06T00:50:55;93653.88;;;1.79;97.88
64211;BME280;73293;48.538;14.354;2024-03-06T00:51:28;93651.96;;;1.74;98.00
64211;BME280;73293;48.538;14.354;2024-03-06T00:52:16;93654.47;;;1.69;98.11
64211;BME280;73293;48.538;14.354;2024-03-06T00:52:50;93656.20;;;1.66;98.25
64211;BME280;73293;48.538;14.354;2024-03-06T00:53:56;93655.19;;;1.71;98.06
64211;BME280;73293;48.538;14.354;2024-03-06T00:54:30;93654.50;;;1.66;97.97
64211;BME280;73293;48.538;14.354;2024-03-06T00:55:04;93655.09;;;1.64;97.92
64211;BME280;73293;48.538;14.354;2024-03-06T00:55:38;93656.48;;;1.61;97.91
64211;BME280;73293;48.538;14.354;2024-03-06T00:56:12;93654.84;;;1.57;98.23
64211;BME280;73293;48.538;14.354;2024-03-06T00:56:46;93656.92;;;1.58;98.40
64211;BME280;73293;48.538;14.354;2024-03-06T00:57:34;93655.17;;;1.58;98.36
64211;BME280;73293;48.538;14.354;2024-03-06T00:58:08;93654.05;;;1.52;98.60
64211;BME280;73293;48.538;14.354;2024-03-06T00:58:42;93655.23;;;1.51;98.68
64211;BME280;73293;48.538;14.354;2024-03-06T00:59:15;93656.34;;;1.50;98.92
64211;BME280;73293;48.538;14.354;2024-03-06T00:59:49;93659.05;;;1.55;98.95
64211;BME280;73293;48.538;14.354;2024-03-06T01:00:23;93656.55;;;1.55;99.18
64211;BME280;73293;48.538;14.354;2024-03-06T01:01:12;93653.56;;;1.57;99.12
64211;BME280;73293;48.538;14.354;2024-03-06T01:01:46;93659.45;;;1.53;99.07
64211;BME280;73293;48.538;14.354;2024-03-06T01:02:20;93654.62;;;1.46;99.10
64211;BME280;73293;48.538;14.354;2024-03-06T01:02:54;93658.95;;;1.49;99.18
64211;BME280;73293;48.538;14.354;2024-03-06T01:03:28;93662.52;;;1.47;99.28
64211;BME280;73293;48.538;14.354;2024-03-06T01:04:02;93661.44;;;1.46;99.37
64211;BME280;73293;48.538;14.354;2024-03-06T01:04:50;93658.48;;;1.47;99.61
64211;BME280;73293;48.538;14.354;2024-03-06T01:05:24;93662.30;;;1.44;99.89
64211;BME280;73293;48.538;14.354;2024-03-06T01:05:59;93661.00;;;1.45;99.94
64211;BME280;73293;48.538;14.354;2024-03-06T01:06:33;93660.98;;;1.48;100.00
64211;BME280;73293;48.538;14.354;2024-03-06T01:07:07;93657.85;;;1.49;99.99
64211;BME280;73293;48.538;14.354;2024-03-06T01:07:40;93661.05;;;1.50;100.00
64211;BME280;73293;48.538;14.354;2024-03-06T01:08:28;93659.41;;;1.56;100.00
64211;BME280;73293;48.538;14.354;2024-03-06T01:09:04;93661.84;;;1.55;99.79
64211;BME280;73293;48.538;14.354;2024-03-06T01:09:37;93661.66;;;1.57;99.36
64211;BME280;73293;48.538;14.354;2024-03-06T01:10:12;93659.14;;;1.52;99.21
64211;BME280;73293;48.538;14.354;2024-03-06T01:10:46;93658.41;;;1.49;99.05
64211;BME280;73293;48.538;14.354;2024-03-06T01:11:20;93659.83;;;1.49;99.01
64211;BME280;73293;48.538;14.354;2024-03-06T01:12:08;93662.87;;;1.49;99.00
64211;BME280;73293;48.538;14.354;2024-03-06T01:12:42;93663.69;;;1.40;98.77
64211;BME280;73293;48.538;14.354;2024-03-06T01:13:20;93662.45;;;1.40;99.16
64211;BME280;73293;48.538;14.354;2024-03-06T01:13:54;93663.17;;;1.44;99.15
64211;BME280;73293;48.538;14.354;2024-03-06T01:14:29;93660.32;;;1.37;99.27
64211;BME280;73293;48.538;14.354;2024-03-06T01:15:05;93666.05;;;1.33;99.42
64211;BME280;73293;48.538;14.354;2024-03-06T01:15:53;93660.83;;;1.33;99.54
64211;BME280;73293;48.538;14.354;2024-03-06T01:16:26;93665.92;;;1.27;99.58
64211;BME280;73293;48.538;14.354;2024-03-06T01:17:00;93665.04;;;1.27;99.66
64211;BME280;73293;48.538;14.354;2024-03-06T01:17:34;93669.98;;;1.28;99.95
64211;BME280;73293;48.538;14.354;2024-03-06T01:18:08;93664.01;;;1.27;99.98
64211;BME280;73293;48.538;14.354;2024-03-06T01:18:42;93665.53;;;1.29;100.00
64211;BME280;73293;48.538;14.354;2024-03-06T01:19:34;93662.76;;;1.36;100.00
64211;BME280;73293;48.538;14.354;2024-03-06T01:20:09;93663.69;;;1.30;100.00
64211;BME280;73293;48.538;14.354;2024-03-06T01:20:45;93669.48;;;1.33;99.99
64211;BME280;73293;48.538;14.354;2024-03-06T01:21:19;93672.63;;;1.33;99.79
64211;BME280;73293;48.538;14.354;2024-03-06T01:21:53;93671.42;;;1.29;99.53
64211;BME280;73293;48.538;14.354;2024-03-06T01:22:26;93666.90;;;1.25;99.57
64211;BME280;73293;48.538;14.354;2024-03-06T01:23:34;93667.08;;;1.38;98.59
64211;BME280;73293;48.538;14.354;2024-03-06T01:24:08;93673.96;;;1.25;98.62
64211;BME280;73293;48.538;14.354;2024-03-06T01:24:42;93671.36;;;1.22;98.75
64211;BME280;73293;48.538;14.354;2024-03-06T01:25:16;93676.20;;;1.20;98.85
64211;BME280;73293;48.538;14.354;2024-03-06T01:25:49;93674.61;;;1.18;99.14
64211;BME280;73293;48.538;14.354;2024-03-06T01:26:54;93670.71;;;1.21;99.27
64211;BME280;73293;48.538;14.354;2024-03-06T01:27:28;93673.86;;;1.13;99.64
64211;BME280;73293;48.538;14.354;2024-03-06T01:28:02;93675.57;;;1.13;100.00
64211;BME280;73293;48.538;14.354;2024-03-06T01:28:36;93672.91;;;1.14;100.00
64211;BME280;73293;48.538;14.354;2024-03-06T01:29:10;93678.18;;;1.16;100.00
64211;BME280;73293;48.538;14.354;2024-03-06T01:29:46;93674.57;;;1.20;100.00
64211;BME280;73293;48.538;14.354;2024-03-06T01:30:32;93674.05;;;1.28;100.00
64211;BME280;73293;48.538;14.354;2024-03-06T01:31:06;93676.58;;;1.26;100.00
64211;BME280;73293;48.538;14.354;2024-03-06T01:31:42;93676.48;;;1.30;100.00
64211;BME280;73293;48.538;14.354;2024-03-06T01:32:16;93677.44;;;1.33;100.00
64211;BME280;73293;48.538;14.354;2024-03-06T01:32:50;93670.35;;;1.35;100.00
64211;BME280;73293;48.538;14.354;2024-03-06T01:33:24;93679.27;;;1.36;100.00
64211;BME280;73293;48.538;14.354;2024-03-06T01:34:12;93677.98;;;1.41;100.00
64211;BME280;73293;48.538;14.354;2024-03-06T01:34:46;93676.69;;;1.36;100.00
64211;BME280;73293;48.538;14.354;2024-03-06T01:35:20;93677.94;;;1.34;100.00
64211;BME280;73293;48.538;14.354;2024-03-06T01:35:54;93677.61;;;1.34;100.00
64211;BME280;73293;48.538;14.354;2024-03-06T01:36:28;93677.14;;;1.37;100.00
64211;BME280;73293;48.538;14.354;2024-03-06T01:37:01;93677.95;;;1.40;100.00
64211;BME280;73293;48.538;14.354;2024-03-06T01:37:50;93677.88;;;1.48;100.00
64211;BME280;73293;48.538;14.354;2024-03-06T01:38:24;93676.90;;;1.50;100.00
64211;BME280;73293;48.538;14.354;2024-03-06T01:38:59;93679.70;;;1.51;100.00
64211;BME280;73293;48.538;14.354;2024-03-06T01:39:33;93677.19;;;1.56;100.00
64211;BME280;73293;48.538;14.354;2024-03-06T01:40:10;93681.70;;;1.58;100.00
64211;BME280;73293;48.538;14.354;2024-03-06T01:40:47;93682.44;;;1.65;100.00
64211;BME280;73293;48.538;14.354;2024-03-06T01:41:33;93677.83;;;1.71;100.00
64211;BME280;73293;48.538;14.354;2024-03-06T01:42:08;93680.13;;;1.72;100.00
64211;BME280;73293;48.538;14.354;2024-03-06T01:42:46;93674.32;;;1.71;100.00
64211;BME280;73293;48.538;14.354;2024-03-06T01:43:24;93675.27;;;1.67;100.00
64211;BME280;73293;48.538;14.354;2024-03-06T01:43:59;93671.33;;;1.67;100.00
64211;BME280;73293;48.538;14.354;2024-03-06T01:44:33;93673.65;;;1.76;100.00
64211;BME280;73293;48.538;14.354;2024-03-06T01:45:21;93669.35;;;1.81;100.00
64211;BME280;73293;48.538;14.354;2024-03-06T01:45:55;93672.01;;;1.77;100.00
64211;BME280;73293;48.538;14.354;2024-03-06T01:46:29;93667.67;;;1.79;100.00
64211;BME280;73293;48.538;14.354;2024-03-06T01:47:03;93671.18;;;1.80;100.00
64211;BME280;73293;48.538;14.354;2024-03-06T01:47:37;93666.68;;;1.81;100.00
64211;BME280;73293;48.538;14.354;2024-03-06T01:48:10;93668.07;;;1.84;100.00
64211;BME280;73293;48.538;14.354;2024-03-06T01:49:02;93664.70;;;1.90;100.00
64211;BME280;73293;48.538;14.354;2024-03-06T01:49:37;93668.37;;;1.87;100.00
64211;BME280;73293;48.538;14.354;2024-03-06T01:50:17;93665.09;;;1.89;100.00
64211;BME280;73293;48.538;14.354;2024-03-06T01:50:56;93663.61;;;1.90;100.00
64211;BME280;73293;48.538;14.354;2024-03-06T01:51:31;93664.14;;;1.90;100.00
64211;BME280;73293;48.538;14.354;2024-03-06T01:52:40;93663.90;;;2.00;100.00
64211;BME280;73293;48.538;14.354;2024-03-06T01:53:16;93664.18;;;1.96;100.00
64211;BME280;73293;48.538;14.354;2024-03-06T01:53:51;93664.85;;;1.95;100.00
64211;BME280;73293;48.538;14.354;2024-03-06T01:54:26;93661.83;;;1.96;100.00
64211;BME280;73293;48.538;14.354;2024-03-06T01:55:00;93661.43;;;1.98;100.00
64211;BME280;73293;48.538;14.354;2024-03-06T01:55:34;93661.88;;;1.98;100.00
64211;BME280;73293;48.538;14.354;2024-03-06T01:56:21;93657.69;;;2.01;100.00
64211;BME280;73293;48.538;14.354;2024-03-06T01:56:56;93658.44;;;1.93;100.00
64211;BME280;73293;48.538;14.354;2024-03-06T01:57:31;93660.56;;;1.94;100.00
64211;BME280;73293;48.538;14.354;2024-03-06T01:58:05;93660.67;;;1.94;100.00
64211;BME280;73293;48.538;14.354;2024-03-06T01:58:39;93661.64;;;1.93;100.00
64211;BME280;73293;48.538;14.354;2024-03-06T01:59:15;93660.59;;;1.92;100.00
64211;BME280;73293;48.538;14.354;2024-03-06T02:00:12;93661.52;;;1.89;100.00
64211;BME280;73293;48.538;14.354;2024-03-06T02:00:49;93659.94;;;1.84;100.00
64211;BME280;73293;48.538;14.354;2024-03-06T02:01:23;93660.50;;;1.82;100.00
64211;BME280;73293;48.538;14.354;2024-03-06T02:01:58;93659.20;;;1.82;100.00
64211;BME280;73293;48.538;14.354;2024-03-06T02:02:32;93658.39;;;1.83;100.00
64211;BME280;73293;48.538;14.354;2024-03-06T02:03:07;93658.23;;;1.84;100.00
64211;BME280;73293;48.538;14.354;2024-03-06T02:03:57;93658.27;;;1.86;100.00
64211;BME280;73293;48.538;14.354;2024-03-06T02:04:32;93660.21;;;1.83;100.00
64211;BME280;73293;48.538;14.354;2024-03-06T02:05:06;93658.04;;;1.84;100.00
64211;BME280;73293;48.538;14.354;2024-03-06T02:05:41;93657.80;;;1.87;100.00
64211;BME280;73293;48.538;14.354;2024-03-06T02:06:15;93657.00;;;1.85;100.00
64211;BME280;73293;48.538;14.354;2024-03-06T02:06:52;93658.39;;;1.85;100.00
64211;BME280;73293;48.538;14.354;2024-03-06T02:07:38;93658.27;;;1.89;100.00
64211;BME280;73293;48.538;14.354;2024-03-06T02:08:14;93657.30;;;1.84;100.00
64211;BME280;73293;48.538;14.354;2024-03-06T02:08:48;93655.32;;;1.85;100.00
64211;BME280;73293;48.538;14.354;2024-03-06T02:09:23;93655.05;;;1.88;100.00
64211;BME280;73293;48.538;14.354;2024-03-06T02:09:57;93655.02;;;1.92;100.00
64211;BME280;73293;48.538;14.354;2024-03-06T02:10:33;93648.35;;;1.92;100.00
64211;BME280;73293;48.538;14.354;2024-03-06T02:11:19;93651.98;;;1.96;100.00
64211;BME280;73293;48.538;14.354;2024-03-06T02:11:53;93650.63;;;1.88;100.00
64211;BME280;73293;48.538;14.354;2024-03-06T02:12:27;93650.66;;;1.86;100.00
64211;BME280;73293;48.538;14.354;2024-03-06T02:13:01;93652.17;;;1.85;100.00
64211;BME280;73293;48.538;14.354;2024-03-06T02:13:34;93651.92;;;1.84;100.00
64211;BME280;73293;48.538;14.354;2024-03-06T02:14:08;93651.05;;;1.83;100.00
64211;BME280;73293;48.538;14.354;2024-03-06T02:15:01;93651.50;;;1.84;100.00
64211;BME280;73293;48.538;14.354;2024-03-06T02:15:36;93648.33;;;1.75;100.00
64211;BME280;73293;48.538;14.354;2024-03-06T02:16:10;93650.25;;;1.75;100.00
64211;BME280;73293;48.538;14.354;2024-03-06T02:16:47;93649.25;;;1.78;100.00
64211;BME280;73293;48.538;14.354;2024-03-06T02:17:21;93649.82;;;1.81;100.00
64211;BME280;73293;48.538;14.354;2024-03-06T02:17:55;93652.52;;;1.73;100.00
64211;BME280;73293;48.538;14.354;2024-03-06T02:18:52;93654.11;;;1.70;100.00
64211;BME280;73293;48.538;14.354;2024-03-06T02:19:38;93654.53;;;1.59;100.00
64211;BME280;73293;48.538;14.354;2024-03-06T02:20:12;93653.32;;;1.55;100.00
64211;BME280;73293;48.538;14.354;2024-03-06T02:20:47;93649.44;;;1.52;100.00
64211;BME280;73293;48.538;14.354;2024-03-06T02:21:24;93654.36;;;1.52;100.00
64211;BME280;73293;48.538;14.354;2024-03-06T02:22:33;93653.02;;;1.56;100.00
64211;BME280;73293;48.538;14.354;2024-03-06T02:23:08;93654.52;;;1.53;100.00
64211;BME280;73293;48.538;14.354;2024-03-06T02:23:42;93651.64;;;1.52;100.00
64211;BME280;73293;48.538;14.354;2024-03-06T02:24:16;93650.29;;;1.49;100.00
64211;BME280;73293;48.538;14.354;2024-03-06T02:24:49;93655.65;;;1.49;100.00
64211;BME280;73293;48.538;14.354;2024-03-06T02:25:23;93651.39;;;1.48;100.00
64211;BME280;73293;48.538;14.354;2024-03-06T02:26:11;93651.87;;;1.51;100.00
64211;BME280;73293;48.538;14.354;2024-03-06T02:26:45;93650.14;;;1.46;100.00
64211;BME280;73293;48.538;14.354;2024-03-06T02:27:18;93653.54;;;1.48;100.00
64211;BME280;73293;48.538;14.354;2024-03-06T02:27:52;93652.70;;;1.48;100.00
64211;BME280;73293;48.538;14.354;2024-03-06T02:28:26;93648.55;;;1.43;100.00
64211;BME280;73293;48.538;14.354;2024-03-06T02:29:00;93652.40;;;1.46;100.00
64211;BME280;73293;48.538;14.354;2024-03-06T02:29:52;93648.65;;;1.47;100.00
64211;BME280;73293;48.538;14.354;2024-03-06T02:30:27;93649.78;;;1.42;100.00
64211;BME280;73293;48.538;14.354;2024-03-06T02:31:04;93650.73;;;1.42;100.00
64211;BME280;73293;48.538;14.354;2024-03-06T02:31:40;93645.06;;;1.40;100.00
64211;BME280;73293;48.538;14.354;2024-03-06T02:32:14;93646.74;;;1.43;100.00
64211;BME280;73293;48.538;14.354;2024-03-06T02:32:48;93646.82;;;1.42;100.00
64211;BME280;73293;48.538;14.354;2024-03-06T02:33:32;93645.05;;;1.46;100.00
64211;BME280;73293;48.538;14.354;2024-03-06T02:34:08;93639.74;;;1.39;100.00
64211;BME280;73293;48.538;14.354;2024-03-06T02:34:41;93642.88;;;1.42;100.00
64211;BME280;73293;48.538;14.354;2024-03-06T02:35:15;93642.41;;;1.42;100.00
64211;BME280;73293;48.538;14.354;2024-03-06T02:35:49;93642.34;;;1.41;100.00
64211;BME280;73293;48.538;14.354;2024-03-06T02:36:24;93644.28;;;1.42;100.00
64211;BME280;73293;48.538;14.354;2024-03-06T02:37:11;93638.35;;;1.43;100.00
64211;BME280;73293;48.538;14.354;2024-03-06T02:37:46;93643.65;;;1.40;100.00
64211;BME280;73293;48.538;14.354;2024-03-06T02:38:20;93643.58;;;1.41;100.00
64211;BME280;73293;48.538;14.354;2024-03-06T02:38:54;93645.11;;;1.42;100.00
64211;BME280;73293;48.538;14.354;2024-03-06T02:39:28;93645.43;;;1.43;100.00
64211;BME280;73293;48.538;14.354;2024-03-06T02:40:02;93645.83;;;1.42;100.00
64211;BME280;73293;48.538;14.354;2024-03-06T02:40:49;93643.24;;;1.45;100.00
64211;BME280;73293;48.538;14.354;2024-03-06T02:41:23;93648.02;;;1.36;100.00
64211;BME280;73293;48.538;14.354;2024-03-06T02:42:05;93647.96;;;1.32;100.00
64211;BME280;73293;48.538;14.354;2024-03-06T02:42:39;93647.79;;;1.26;100.00
64211;BME280;73293;48.538;14.354;2024-03-06T02:43:14;93643.48;;;1.19;100.00
64211;BME280;73293;48.538;14.354;2024-03-06T02:43:49;93644.52;;;1.20;100.00
64211;BME280;73293;48.538;14.354;2024-03-06T02:44:44;93644.39;;;1.17;100.00
64211;BME280;73293;48.538;14.354;2024-03-06T02:45:18;93647.35;;;1.13;100.00
64211;BME280;73293;48.538;14.354;2024-03-06T02:45:56;93648.38;;;1.13;100.00
64211;BME280;73293;48.538;14.354;2024-03-06T02:46:30;93642.60;;;1.09;100.00
64211;BME280;73293;48.538;14.354;2024-03-06T02:47:04;93651.13;;;1.11;100.00
64211;BME280;73293;48.538;14.354;2024-03-06T02:47:38;93648.77;;;1.12;100.00
64211;BME280;73293;48.538;14.354;2024-03-06T02:48:22;93647.79;;;1.16;100.00
64211;BME280;73293;48.538;14.354;2024-03-06T02:48:56;93648.19;;;1.14;100.00
64211;BME280;73293;48.538;14.354;2024-03-06T02:49:29;93643.98;;;1.15;100.00
64211;BME280;73293;48.538;14.354;2024-03-06T02:50:04;93645.33;;;1.15;100.00
64211;BME280;73293;48.538;14.354;2024-03-06T02:50:39;93644.61;;;1.15;100.00
64211;BME280;73293;48.538;14.354;2024-03-06T02:51:18;93644.65;;;1.15;100.00
64211;BME280;73293;48.538;14.354;2024-03-06T02:52:03;93646.31;;;1.15;100.00
64211;BME280;73293;48.538;14.354;2024-03-06T02:52:37;93648.94;;;1.12;100.00
64211;BME280;73293;48.538;14.354;2024-03-06T02:53:11;93648.56;;;1.12;100.00
64211;BME280;73293;48.538;14.354;2024-03-06T02:53:44;93644.59;;;1.10;100.00
64211;BME280;73293;48.538;14.354;2024-03-06T02:54:18;93639.77;;;1.06;100.00
64211;BME280;73293;48.538;14.354;2024-03-06T02:54:52;93647.27;;;1.09;100.00
64211;BME280;73293;48.538;14.354;2024-03-06T02:55:44;93647.47;;;1.12;100.00
64211;BME280;73293;48.538;14.354;2024-03-06T02:56:19;93648.36;;;1.06;100.00
64211;BME280;73293;48.538;14.354;2024-03-06T02:56:53;93648.60;;;1.04;100.00
64211;BME280;73293;48.538;14.354;2024-03-06T02:57:27;93647.52;;;1.03;100.00
64211;BME280;73293;48.538;14.354;2024-03-06T02:58:02;93648.34;;;1.02;100.00
64211;BME280;73293;48.538;14.354;2024-03-06T02:58:36;93651.45;;;1.02;100.00
64211;BME280;73293;48.538;14.354;2024-03-06T02:59:26;93651.46;;;1.06;100.00
64211;BME280;73293;48.538;14.354;2024-03-06T03:00:03;93643.64;;;1.00;100.00
64211;BME280;73293;48.538;14.354;2024-03-06T03:00:40;93653.21;;;1.03;100.00
64211;BME280;73293;48.538;14.354;2024-03-06T03:01:15;93653.17;;;1.05;100.00
64211;BME280;73293;48.538;14.354;2024-03-06T03:01:48;93650.23;;;1.05;100.00
64211;BME280;73293;48.538;14.354;2024-03-06T03:02:22;93652.27;;;1.08;100.00
64211;BME280;73293;48.538;14.354;2024-03-06T03:03:07;93653.77;;;1.06;100.00
64211;BME280;73293;48.538;14.354;2024-03-06T03:03:41;93653.94;;;0.98;100.00
64211;BME280;73293;48.538;14.354;2024-03-06T03:04:17;93654.91;;;0.95;100.00
64211;BME280;73293;48.538;14.354;2024-03-06T03:04:51;93657.54;;;0.95;100.00
64211;BME280;73293;48.538;14.354;2024-03-06T03:05:26;93653.69;;;0.93;100.00
64211;BME280;73293;48.538;14.354;2024-03-06T03:06:00;93656.15;;;0.95;100.00
64211;BME280;73293;48.538;14.354;2024-03-06T03:06:48;93659.12;;;0.99;100.00
64211;BME280;73293;48.538;14.354;2024-03-06T03:07:22;93654.52;;;0.93;100.00
64211;BME280;73293;48.538;14.354;2024-03-06T03:07:57;93655.59;;;0.95;100.00
64211;BME280;73293;48.538;14.354;2024-03-06T03:08:31;93652.78;;;0.96;100.00
64211;BME280;73293;48.538;14.354;2024-03-06T03:09:04;93654.98;;;1.00;100.00
64211;BME280;73293;48.538;14.354;2024-03-06T03:09:38;93653.36;;;1.02;100.00
64211;BME280;73293;48.538;14.354;2024-03-06T03:10:26;93651.02;;;1.05;100.00
64211;BME280;73293;48.538;14.354;2024-03-06T03:11:00;93654.66;;;1.04;100.00
64211;BME280;73293;48.538;14.354;2024-03-06T03:11:33;93657.52;;;1.07;100.00
64211;BME280;73293;48.538;14.354;2024-03-06T03:12:09;93656.14;;;1.10;100.00
64211;BME280;73293;48.538;14.354;2024-03-06T03:12:45;93657.24;;;1.18;100.00
64211;BME280;73293;48.538;14.354;2024-03-06T03:13:18;93655.49;;;1.30;100.00
64211;BME280;73293;48.538;14.354;2024-03-06T03:14:07;93656.20;;;1.29;100.00
64211;BME280;73293;48.538;14.354;2024-03-06T03:14:42;93657.92;;;1.18;100.00
64211;BME280;73293;48.538;14.354;2024-03-06T03:15:16;93653.61;;;1.15;100.00
64211;BME280;73293;48.538;14.354;2024-03-06T03:15:50;93656.16;;;1.18;100.00
64211;BME280;73293;48.538;14.354;2024-03-06T03:16:24;93656.31;;;1.18;100.00